Time;durP1;ratioP1;P1;durP2;ratioP2;P2;SDS_P1;SDS_P2;PMS_P1;PMS_P2;Temp;Humidity;BMP_temperature;BMP_pressure;BME280_temperature;BME280_humidity;BME280_pressure;Samples;Min_cycle;Max_cycle;Signal;HPM_P1;HPM_P2
2023/08/24 00:03:02;;;;;;;7.80;2.50;;;;;;;17.12;87.61;100002.40;109076;1257;73855;-59
2023/08/24 00:05:49;;;;;;;7.90;2.30;;;;;;;17.09;87.66;99996.30;109151;1260;58099;-60
2023/08/24 00:08:35;;;;;;;7.60;2.60;;;;;;;17.13;87.66;100000.55;109138;1259;58684;-61
2023/08/24 00:11:21;;;;;;;7.80;2.90;;;;;;;17.14;87.60;99995.64;109050;1259;73382;-63
2023/08/24 00:14:09;;;;;;;8.10;2.80;;;;;;;17.13;87.58;99996.80;109050;1258;66492;-61
2023/08/24 00:16:55;;;;;;;7.20;2.50;;;;;;;17.12;87.66;99990.80;108978;1259;71194;-59
2023/08/24 00:19:41;;;;;;;7.20;2.40;;;;;;;17.11;87.65;99987.88;108994;1258;59425;-61
2023/08/24 00:22:27;;;;;;;7.20;2.60;;;;;;;17.11;87.70;99985.19;109033;1258;60408;-60
2023/08/24 00:25:14;;;;;;;8.80;2.30;;;;;;;17.12;87.76;99978.73;109032;1258;74003;-61
2023/08/24 00:28:01;;;;;;;8.50;2.60;;;;;;;17.13;87.70;99976.15;109048;1258;68095;-59
2023/08/24 00:30:47;;;;;;;12.30;3.20;;;;;;;17.13;87.67;99976.00;108982;1258;73384;-60
2023/08/24 00:33:33;;;;;;;9.20;3.10;;;;;;;17.13;87.71;99978.18;108999;1259;58975;-66
2023/08/24 00:36:20;;;;;;;7.90;2.50;;;;;;;17.12;87.77;99982.53;109022;1259;61220;-62
2023/08/24 00:39:06;;;;;;;7.60;2.50;;;;;;;17.11;87.78;99985.02;108991;1259;72882;-59
2023/08/24 00:41:52;;;;;;;10.10;2.70;;;;;;;17.11;87.83;99987.54;109041;1258;66924;-61
2023/08/24 00:44:39;;;;;;;7.90;2.60;;;;;;;17.12;87.79;99984.92;109031;1258;72806;-59
2023/08/24 00:47:25;;;;;;;7.20;2.40;;;;;;;17.12;87.63;99983.81;109047;1258;57329;-59
2023/08/24 00:50:12;;;;;;;7.20;2.60;;;;;;;17.12;87.76;99978.78;109032;1259;61265;-61
2023/08/24 00:52:59;;;;;;;6.70;2.50;;;;;;;17.12;87.49;99979.31;109023;1259;73013;-60
2023/08/24 00:55:46;;;;;;;7.10;2.50;;;;;;;17.13;87.38;99972.09;109030;1258;67509;-61
2023/08/24 00:58:33;;;;;;;10.20;2.90;;;;;;;17.12;87.50;99965.93;109013;1258;72571;-61
2023/08/24 01:01:20;;;;;;;10.50;2.50;;;;;;;17.11;87.45;99965.63;108983;1258;59028;-60
2023/08/24 01:04:07;;;;;;;9.50;2.70;;;;;;;17.12;87.42;99963.92;109050;1259;60288;-61
2023/08/24 01:06:53;;;;;;;6.90;2.50;;;;;;;17.12;87.45;99963.89;109034;1258;74048;-59
2023/08/24 01:09:40;;;;;;;8.50;2.40;;;;;;;17.13;87.46;99963.95;109049;1259;67577;-60
2023/08/24 01:12:57;;;;;;;7.00;2.50;;;;;;;17.14;87.55;99965.90;109012;1259;73749;-59
2023/08/24 01:16:06;;;;;;;7.50;2.70;;;;;;;17.12;87.58;99968.52;109018;1259;57888;-60
2023/08/24 01:18:59;;;;;;;7.40;2.40;;;;;;;17.12;87.51;99964.50;108958;1258;58896;-59
2023/08/24 01:21:45;;;;;;;10.10;2.70;;;;;;;17.10;87.60;99962.14;109029;1259;74067;-60
2023/08/24 01:24:40;;;;;;;7.10;2.50;;;;;;;17.09;87.66;99967.46;109046;1259;68645;-59
2023/08/24 01:27:28;;;;;;;8.50;2.80;;;;;;;17.08;87.75;99968.14;108990;1259;72779;-59
2023/08/24 01:30:18;;;;;;;8.00;2.40;;;;;;;17.08;87.86;99970.40;109016;1258;60985;-60
2023/08/24 01:33:05;;;;;;;8.70;2.40;;;;;;;17.10;87.91;99971.00;109023;1259;60141;-59
2023/08/24 01:35:51;;;;;;;8.60;2.60;;;;;;;17.10;87.82;99970.20;109069;1258;73073;-59
2023/08/24 01:38:37;;;;;;;8.60;2.40;;;;;;;17.10;87.88;99975.02;109022;1258;68670;-59
2023/08/24 01:41:33;;;;;;;7.50;2.30;;;;;;;17.08;88.05;99973.09;109020;1258;71637;-60
2023/08/24 01:44:23;;;;;;;8.00;2.40;;;;;;;17.08;88.05;99976.73;108980;1259;60470;-59
2023/08/24 01:47:11;;;;;;;8.10;2.40;;;;;;;17.05;88.17;99976.10;108840;1258;60162;-60
2023/08/24 01:49:57;;;;;;;8.00;2.50;;;;;;;17.04;88.32;99974.09;108992;1258;74066;-59
2023/08/24 01:52:44;;;;;;;8.20;2.90;;;;;;;17.05;88.44;99972.41;109050;1259;68058;-60
2023/08/24 01:55:30;;;;;;;8.20;2.60;;;;;;;17.01;88.55;99972.95;108889;1259;71639;-59
2023/08/24 01:58:16;;;;;;;8.60;2.60;;;;;;;17.02;88.69;99972.80;109027;1259;59144;-59
2023/08/24 02:01:05;;;;;;;7.40;2.70;;;;;;;17.01;88.98;99974.71;109048;1262;58813;-61
2023/08/24 02:03:51;;;;;;;7.10;2.40;;;;;;;16.99;89.08;99978.13;108973;1259;72882;-60
2023/08/24 02:06:38;;;;;;;10.70;2.70;;;;;;;16.97;89.35;99978.56;109085;1259;68440;-59
2023/08/24 02:09:24;;;;;;;13.00;2.50;;;;;;;16.96;89.65;99977.55;109040;1260;72920;-61
2023/08/24 02:12:11;;;;;;;8.60;2.70;;;;;;;16.96;89.66;99976.14;109032;1260;60395;-60
2023/08/24 02:14:57;;;;;;;6.40;2.20;;;;;;;16.96;89.73;99975.80;109074;1261;60159;-59
2023/08/24 02:17:44;;;;;;;7.70;2.50;;;;;;;16.95;89.86;99975.73;109048;1259;74082;-60
2023/08/24 02:20:34;;;;;;;8.70;2.50;;;;;;;16.93;89.93;99974.58;109013;1258;67840;-60
2023/08/24 02:23:20;;;;;;;9.10;2.50;;;;;;;16.90;90.06;99974.34;109010;1258;73957;-59
2023/08/24 02:26:07;;;;;;;8.00;2.70;;;;;;;16.88;90.27;99971.25;109023;1259;60762;-60
2023/08/24 02:28:54;;;;;;;8.10;2.70;;;;;;;16.87;90.23;99966.89;109095;1257;58869;-59
2023/08/24 02:31:43;;;;;;;6.50;2.30;;;;;;;16.85;90.66;99966.54;108990;1261;71451;-60
2023/08/24 02:34:30;;;;;;;7.90;2.30;;;;;;;16.83;90.94;99964.56;109031;1259;67873;-60
2023/08/24 02:37:16;;;;;;;6.90;2.30;;;;;;;16.81;90.89;99966.75;109028;1259;71057;-59
2023/08/24 02:40:03;;;;;;;6.70;2.70;;;;;;;16.79;91.13;99963.95;108994;1259;58015;-59
2023/08/24 02:42:50;;;;;;;7.20;2.40;;;;;;;16.76;91.23;99958.88;109043;1260;60408;-59
2023/08/24 02:45:35;;;;;;;8.10;2.60;;;;;;;16.75;91.35;99959.61;109001;1261;74061;-59
2023/08/24 02:48:22;;;;;;;10.20;2.70;;;;;;;16.73;91.58;99959.44;109039;1258;68633;-59
2023/08/24 02:51:10;;;;;;;7.60;2.70;;;;;;;16.71;91.67;99958.94;109025;1258;73791;-60
2023/08/24 02:53:56;;;;;;;6.80;2.20;;;;;;;16.68;91.92;99957.02;109063;1259;58111;-60
2023/08/24 02:56:43;;;;;;;9.60;2.90;;;;;;;16.66;92.24;99956.86;109024;1260;60366;-60
2023/08/24 02:59:29;;;;;;;8.10;2.70;;;;;;;16.63;92.53;99955.98;109022;1260;74032;-60
2023/08/24 03:02:15;;;;;;;8.70;2.70;;;;;;;16.60;92.51;99954.33;109044;1259;67867;-61
2023/08/24 03:05:02;;;;;;;6.30;2.20;;;;;;;16.55;92.61;99951.80;109009;1258;72591;-60
2023/08/24 03:07:48;;;;;;;7.20;2.30;;;;;;;16.52;93.07;99954.27;109022;1258;58352;-60
2023/08/24 03:10:35;;;;;;;7.70;2.60;;;;;;;16.48;93.31;99958.41;108987;1261;59835;-60
2023/08/24 03:13:22;;;;;;;8.00;2.60;;;;;;;16.42;93.49;99956.90;109063;1260;73911;-59
2023/08/24 03:16:09;;;;;;;8.80;3.20;;;;;;;16.43;93.73;99963.81;108978;1261;68948;-60
2023/08/24 03:18:55;;;;;;;11.00;2.70;;;;;;;16.41;94.07;99960.27;108986;1260;73594;-61
2023/08/24 03:21:42;;;;;;;9.60;2.80;;;;;;;16.40;94.17;99966.73;109015;1260;60607;-59
2023/08/24 03:24:29;;;;;;;9.70;2.60;;;;;;;16.42;94.27;99969.46;109094;1258;60197;-60
2023/08/24 03:27:16;;;;;;;7.10;2.50;;;;;;;16.42;94.28;99970.56;109015;1260;73932;-60
2023/08/24 03:30:04;;;;;;;11.00;2.70;;;;;;;16.40;94.42;99967.88;109024;1260;67917;-59
2023/08/24 03:32:50;;;;;;;9.20;2.60;;;;;;;16.39;94.45;99972.43;109024;1259;72442;-60
2023/08/24 03:35:37;;;;;;;8.70;2.70;;;;;;;16.37;94.58;99973.69;109035;1258;59448;-60
2023/08/24 03:38:23;;;;;;;8.00;2.60;;;;;;;16.34;94.60;99971.32;109038;1259;61477;-59
2023/08/24 03:41:10;;;;;;;9.40;2.70;;;;;;;16.30;94.57;99969.70;109061;1258;71772;-61
2023/08/24 03:43:57;;;;;;;7.00;2.60;;;;;;;16.26;94.87;99967.66;108961;1260;68855;-60
2023/08/24 03:46:43;;;;;;;10.20;2.80;;;;;;;16.20;94.84;99966.48;109002;1257;71250;-59
2023/08/24 03:49:30;;;;;;;7.00;2.60;;;;;;;16.14;95.51;99971.78;109062;1257;59532;-60
2023/08/24 03:52:17;;;;;;;8.90;2.90;;;;;;;16.10;95.88;99977.02;109112;1257;59088;-60
2023/08/24 03:55:04;;;;;;;6.90;2.70;;;;;;;16.07;95.87;99975.33;109037;1260;72895;-58
2023/08/24 03:57:50;;;;;;;9.80;2.70;;;;;;;16.06;96.38;99974.94;109055;1258;67820;-62
2023/08/24 04:00:39;;;;;;;7.20;2.50;;;;;;;16.06;96.53;99973.16;108934;1261;72740;-63
2023/08/24 04:03:25;;;;;;;7.80;2.70;;;;;;;16.06;96.78;99974.38;108917;1259;59600;-60
2023/08/24 04:06:12;;;;;;;7.00;2.50;;;;;;;16.09;96.79;99979.66;108982;1260;61396;-60
2023/08/24 04:08:58;;;;;;;7.20;2.50;;;;;;;16.12;96.62;99980.76;109001;1260;73882;-60
2023/08/24 04:11:44;;;;;;;9.90;3.10;;;;;;;16.13;96.68;99975.57;109015;1257;69093;-61
2023/08/24 04:14:30;;;;;;;9.80;2.80;;;;;;;16.17;96.52;99975.35;109031;1257;72610;-60
2023/08/24 04:17:16;;;;;;;8.80;2.40;;;;;;;16.22;96.27;99976.39;108996;1257;59589;-63
2023/08/24 04:20:06;;;;;;;7.00;2.30;;;;;;;16.26;96.15;99976.42;108949;1257;61203;-64
2023/08/24 04:22:52;;;;;;;7.60;2.50;;;;;;;16.32;95.92;99977.81;109062;1257;73034;-61
2023/08/24 04:25:40;;;;;;;6.30;2.70;;;;;;;16.38;95.37;99976.52;109061;1257;68799;-61
2023/08/24 04:28:26;;;;;;;5.70;2.20;;;;;;;16.41;95.03;99976.30;109087;1257;72858;-61
2023/08/24 04:31:12;;;;;;;8.10;2.80;;;;;;;16.45;94.64;99970.52;109033;1257;59515;-61
2023/08/24 04:33:59;;;;;;;10.00;2.50;;;;;;;16.51;94.14;99970.27;109059;1257;60245;-61
2023/08/24 04:36:45;;;;;;;8.40;2.70;;;;;;;16.56;93.77;99967.80;109047;1257;74276;-62
2023/08/24 04:39:31;;;;;;;7.30;2.20;;;;;;;16.63;93.48;99971.70;109071;1257;65545;-60
2023/08/24 04:42:17;;;;;;;7.80;2.40;;;;;;;16.72;93.08;99978.53;109057;1257;73735;-60
2023/08/24 04:45:04;;;;;;;9.00;2.30;;;;;;;16.79;92.66;99979.50;108981;1257;60483;-62
2023/08/24 04:47:50;;;;;;;7.50;2.40;;;;;;;16.85;92.42;99978.55;109048;1260;60164;-61
2023/08/24 04:50:37;;;;;;;6.50;2.10;;;;;;;16.94;92.06;99977.43;109064;1259;74057;-60
2023/08/24 04:53:24;;;;;;;9.10;2.70;;;;;;;17.02;91.78;99977.67;109052;1259;68744;-62
2023/08/24 04:56:10;;;;;;;8.20;2.40;;;;;;;17.13;91.40;99977.48;108951;1259;72484;-58
2023/08/24 04:59:00;;;;;;;6.50;2.00;;;;;;;17.21;91.08;99981.21;109045;1259;59415;-61
2023/08/24 05:01:46;;;;;;;8.90;2.80;;;;;;;17.33;90.70;99980.71;109013;1258;61226;-62
2023/08/24 05:04:32;;;;;;;8.30;2.20;;;;;;;17.43;90.13;99981.05;109030;1260;73467;-62
2023/08/24 05:07:18;;;;;;;9.80;2.30;;;;;;;17.50;89.79;99983.98;108982;1258;69230;-63
2023/08/24 05:10:06;;;;;;;8.60;2.30;;;;;;;17.58;89.57;99981.98;109037;1259;73501;-63
2023/08/24 05:12:52;;;;;;;6.90;2.20;;;;;;;17.61;89.42;99976.02;108999;1259;59577;-61
2023/08/24 05:15:38;;;;;;;7.70;2.30;;;;;;;17.71;89.11;99985.75;108926;1260;61448;-63
2023/08/24 05:18:25;;;;;;;9.80;2.40;;;;;;;17.81;88.87;99983.80;109025;1258;74151;-60
2023/08/24 05:21:11;;;;;;;9.10;2.20;;;;;;;17.97;88.55;99986.69;108973;1259;67726;-63
2023/08/24 05:23:57;;;;;;;7.20;2.00;;;;;;;18.11;87.65;99987.98;109035;1259;72421;-63
2023/08/24 05:26:43;;;;;;;7.80;2.20;;;;;;;18.18;87.14;99987.41;109033;1259;57234;-64
2023/08/24 05:29:29;;;;;;;6.90;2.10;;;;;;;18.22;86.72;99993.42;109037;1257;61309;-61
2023/08/24 05:32:15;;;;;;;7.90;2.30;;;;;;;18.31;86.42;99994.63;109067;1257;73114;-63
2023/08/24 05:35:02;;;;;;;8.90;2.10;;;;;;;18.30;85.90;99994.48;109109;1257;68682;-63
2023/08/24 05:37:48;;;;;;;6.70;1.90;;;;;;;18.29;86.15;99988.69;109087;1257;73652;-63
2023/08/24 05:40:36;;;;;;;6.90;2.20;;;;;;;18.39;85.62;99987.63;108929;1258;58754;-61
2023/08/24 05:43:23;;;;;;;9.60;2.30;;;;;;;18.45;85.84;99987.15;109079;1257;61544;-61
2023/08/24 05:46:09;;;;;;;6.50;2.00;;;;;;;18.60;85.24;99994.30;109099;1257;73971;-62
2023/08/24 05:48:58;;;;;;;7.30;2.30;;;;;;;18.71;84.77;99994.64;109090;1257;69026;-60
2023/08/24 05:51:44;;;;;;;7.70;1.90;;;;;;;18.74;84.33;99995.38;109083;1258;72470;-61
2023/08/24 05:54:30;;;;;;;8.30;2.20;;;;;;;18.84;84.17;99990.16;108936;1257;59627;-62
2023/08/24 05:57:16;;;;;;;7.10;2.00;;;;;;;19.01;83.27;99989.48;109092;1257;58912;-65
2023/08/24 06:00:09;;;;;;;7.70;2.30;;;;;;;19.63;82.00;99991.50;109044;1257;72059;-67
2023/08/24 06:02:58;;;;;;;7.60;2.00;;;;;;;20.43;78.67;99998.48;109018;1257;69155;-63
2023/08/24 06:05:45;;;;;;;7.60;2.00;;;;;;;20.96;76.01;99992.91;108903;1257;72627;-65
2023/08/24 06:08:32;;;;;;;6.70;1.70;;;;;;;21.08;74.75;99996.91;109064;1257;59171;-69
2023/08/24 06:11:18;;;;;;;10.10;2.20;;;;;;;21.00;74.52;99995.98;109030;1257;59103;-65
2023/08/24 06:14:05;;;;;;;6.50;2.00;;;;;;;20.81;74.65;100000.70;109128;1257;73830;-64
2023/08/24 06:16:53;;;;;;;7.30;2.10;;;;;;;20.54;74.80;100000.73;109093;1257;66532;-62
2023/08/24 06:19:39;;;;;;;7.50;1.90;;;;;;;20.31;75.86;99994.17;109024;1257;72591;-61
2023/08/24 06:22:25;;;;;;;8.80;2.00;;;;;;;20.15;76.61;99996.39;109111;1257;57852;-63
2023/08/24 06:25:13;;;;;;;7.60;2.30;;;;;;;20.05;77.08;99991.41;109076;1257;61168;-64
2023/08/24 06:27:59;;;;;;;6.70;2.10;;;;;;;20.12;77.50;99994.42;109062;1257;71477;-60
2023/08/24 06:30:47;;;;;;;7.40;2.00;;;;;;;20.33;77.13;99987.77;109042;1257;68902;-58
2023/08/24 06:33:35;;;;;;;8.00;2.20;;;;;;;20.53;76.18;99989.89;109069;1257;72367;-58
2023/08/24 06:36:21;;;;;;;7.60;2.30;;;;;;;20.55;75.65;99989.77;109052;1257;58867;-61
2023/08/24 06:39:08;;;;;;;7.20;2.30;;;;;;;20.56;75.45;99990.22;109100;1257;60201;-63
2023/08/24 06:41:54;;;;;;;7.70;1.90;;;;;;;20.51;75.67;99984.50;108986;1257;197965;-62
2023/08/24 06:44:44;;;;;;;7.20;1.90;;;;;;;20.46;75.34;99982.80;109008;1257;67866;-62
2023/08/24 06:47:31;;;;;;;6.70;1.70;;;;;;;20.39;75.00;99985.61;109063;1257;72070;-61
2023/08/24 06:50:19;;;;;;;6.80;2.00;;;;;;;20.33;75.44;99980.78;109043;1257;59375;-63
2023/08/24 06:53:05;;;;;;;5.90;1.60;;;;;;;20.24;74.98;99979.45;109087;1257;60194;-61
2023/08/24 06:55:57;;;;;;;8.40;1.90;;;;;;;20.18;75.49;99980.36;109088;1257;74050;-62
2023/08/24 06:58:45;;;;;;;7.80;1.80;;;;;;;20.15;75.60;99979.52;109026;1259;67864;-62
2023/08/24 07:01:31;;;;;;;8.90;2.10;;;;;;;20.14;75.70;99980.38;109007;1257;72583;-65
2023/08/24 07:04:18;;;;;;;6.60;1.90;;;;;;;20.17;76.16;99982.09;109044;1257;60466;-64
2023/08/24 07:07:04;;;;;;;7.20;2.00;;;;;;;20.23;75.78;99984.05;108926;1257;61249;-62
2023/08/24 07:09:51;;;;;;;7.60;1.90;;;;;;;20.33;75.53;99986.32;109089;1257;73841;-67
2023/08/24 07:12:40;;;;;;;6.60;1.50;;;;;;;20.42;75.11;99984.13;109093;1257;68684;-62
2023/08/24 07:15:26;;;;;;;6.50;2.00;;;;;;;20.48;74.87;99984.73;108973;1257;72891;-62
2023/08/24 07:18:13;;;;;;;7.10;1.90;;;;;;;20.58;74.85;99987.63;109076;1257;58819;-65
2023/08/24 07:20:59;;;;;;;8.00;2.00;;;;;;;20.75;73.99;99994.30;108986;1257;60114;-62
2023/08/24 07:23:45;;;;;;;8.10;2.00;;;;;;;20.83;73.37;99984.25;109030;1257;72905;-63
2023/08/24 07:26:33;;;;;;;7.30;2.00;;;;;;;20.92;73.25;99987.35;108932;1260;67772;-61
2023/08/24 07:29:21;;;;;;;8.20;2.00;;;;;;;21.06;73.12;99993.48;108991;1258;71164;-64
2023/08/24 07:32:07;;;;;;;8.00;2.30;;;;;;;21.22;72.47;99996.86;108961;1257;58009;-62
2023/08/24 07:34:53;;;;;;;7.50;2.00;;;;;;;21.43;71.66;99995.98;109081;1258;60832;-63
2023/08/24 07:37:40;;;;;;;7.90;2.00;;;;;;;21.98;69.69;99997.23;109052;1257;73876;-62
2023/08/24 07:40:26;;;;;;;9.10;2.20;;;;;;;23.15;66.45;99995.73;109071;1257;66911;-61
2023/08/24 07:43:12;;;;;;;6.20;2.00;;;;;;;24.65;61.27;99994.70;109082;1257;73799;-65
2023/08/24 07:45:59;;;;;;;6.70;1.50;;;;;;;26.04;55.48;99993.14;109053;1257;59091;-65
2023/08/24 07:48:46;;;;;;;6.10;1.60;;;;;;;27.28;51.98;99993.48;109099;1257;61154;-61
2023/08/24 07:51:33;;;;;;;6.80;1.30;;;;;;;28.51;47.32;99997.82;109095;1257;73884;-62
2023/08/24 07:54:20;;;;;;;6.50;1.30;;;;;;;29.24;44.34;99999.20;109061;1257;67673;-62
2023/08/24 07:57:06;;;;;;;8.70;1.60;;;;;;;29.10;43.61;100001.31;109070;1257;72527;-62
2023/08/24 07:59:52;;;;;;;7.80;1.30;;;;;;;28.47;44.63;99998.27;109098;1257;57775;-62
2023/08/24 08:02:39;;;;;;;6.90;1.40;;;;;;;28.84;44.80;100001.55;109083;1257;59430;-62
2023/08/24 08:05:26;;;;;;;7.60;1.40;;;;;;;29.63;42.86;99995.09;109055;1257;74023;-62
2023/08/24 08:08:14;;;;;;;6.50;1.30;;;;;;;30.31;40.73;99999.44;109132;1257;71281;-62
2023/08/24 08:11:02;;;;;;;5.50;1.10;;;;;;;29.34;40.82;100004.41;109078;1257;71452;-63
2023/08/24 08:13:48;;;;;;;5.60;1.10;;;;;;;28.40;42.58;100010.02;109002;1257;57906;-62
2023/08/24 08:16:36;;;;;;;5.30;1.20;;;;;;;27.95;43.28;100013.89;109067;1257;61348;-60
2023/08/24 08:19:25;;;;;;;6.30;1.30;;;;;;;27.98;43.36;100014.14;109076;1257;73016;-61
2023/08/24 08:22:12;;;;;;;6.00;1.20;;;;;;;28.08;43.16;100012.55;109116;1258;67710;-62
2023/08/24 08:24:58;;;;;;;6.90;1.10;;;;;;;28.94;41.91;100017.61;108983;1258;73799;-62
2023/08/24 08:27:44;;;;;;;5.70;1.30;;;;;;;28.58;41.55;100014.08;108902;1259;57681;-62
2023/08/24 08:30:32;;;;;;;5.20;1.30;;;;;;;28.85;41.39;100009.78;109082;1257;61313;-61
2023/08/24 08:33:19;;;;;;;5.60;1.10;;;;;;;29.35;41.08;100010.74;108948;1258;73410;-62
2023/08/24 08:36:05;;;;;;;5.40;1.00;;;;;;;29.14;40.69;100012.84;109090;1257;68827;-62
2023/08/24 08:38:52;;;;;;;5.00;1.10;;;;;;;27.97;42.34;100008.49;109083;1257;72816;-61
2023/08/24 08:41:44;;;;;;;6.20;1.30;;;;;;;26.98;44.58;100019.92;109084;1257;57376;-60
2023/08/24 08:44:32;;;;;;;6.40;1.20;;;;;;;26.87;45.35;100023.34;109095;1257;60353;-61
2023/08/24 08:47:18;;;;;;;5.40;1.10;;;;;;;26.64;45.72;100023.83;109094;1257;73749;-62
2023/08/24 08:50:05;;;;;;;4.60;1.20;;;;;;;26.17;45.69;100032.23;109063;1257;67851;-62
2023/08/24 08:52:51;;;;;;;5.60;1.30;;;;;;;25.72;46.67;100033.46;109044;1257;73569;-60
2023/08/24 08:55:38;;;;;;;6.50;1.50;;;;;;;25.72;47.56;100030.95;109091;1257;58163;-62
2023/08/24 08:58:25;;;;;;;6.20;1.40;;;;;;;26.32;47.33;100025.14;109045;1257;58762;-61
2023/08/24 09:01:11;;;;;;;6.00;1.30;;;;;;;27.30;44.89;100026.80;109134;1257;74147;-62
2023/08/24 09:03:58;;;;;;;7.20;1.50;;;;;;;27.81;43.02;100025.77;109103;1257;67621;-63
2023/08/24 09:06:45;;;;;;;8.50;1.20;;;;;;;28.37;42.19;100025.23;109074;1257;71669;-63
2023/08/24 09:09:33;;;;;;;5.50;1.10;;;;;;;28.99;40.90;100024.70;109007;1257;58291;-63
2023/08/24 09:12:19;;;;;;;5.80;1.20;;;;;;;29.41;39.27;100027.09;109102;1257;60018;-63
2023/08/24 09:15:06;;;;;;;8.00;1.30;;;;;;;30.28;38.27;100016.85;109091;1257;72379;-62
2023/08/24 09:17:57;;;;;;;6.50;1.20;;;;;;;30.49;37.26;100016.85;109077;1257;69048;-62
2023/08/24 09:20:44;;;;;;;6.60;1.10;;;;;;;30.32;37.07;100019.45;108984;1257;71285;-61
2023/08/24 09:23:31;;;;;;;8.80;1.20;;;;;;;30.54;36.98;100011.82;109054;1257;59053;-63
2023/08/24 09:26:30;;;;;;;6.30;1.10;;;;;;;30.93;35.92;100003.43;109006;1257;60116;-62
2023/08/24 09:29:16;;;;;;;5.60;1.20;;;;;;;30.70;36.56;100002.42;109070;1257;72576;-63
2023/08/24 09:32:03;;;;;;;5.70;1.00;;;;;;;30.56;36.70;99995.42;108975;1259;67708;-62
2023/08/24 09:34:50;;;;;;;6.20;1.20;;;;;;;29.98;37.51;99999.88;108925;1259;73516;-62
2023/08/24 09:37:38;;;;;;;7.90;1.70;;;;;;;29.55;37.43;99999.61;108921;1259;57659;-62
2023/08/24 09:40:28;;;;;;;6.00;1.30;;;;;;;30.36;36.90;99995.73;109052;1260;61074;-65
2023/08/24 09:43:14;;;;;;;5.50;1.30;;;;;;;30.82;35.84;99996.70;108972;1260;74153;-62
2023/08/24 09:46:03;;;;;;;5.90;1.20;;;;;;;31.46;34.21;99995.09;108933;1261;68006;-63
2023/08/24 09:48:54;;;;;;;5.10;1.10;;;;;;;32.17;33.52;99986.86;108936;1260;72519;-62
2023/08/24 09:51:41;;;;;;;5.40;1.00;;;;;;;32.69;32.44;99989.65;108961;1260;58805;-63
2023/08/24 09:54:31;;;;;;;6.10;1.30;;;;;;;33.04;31.57;99984.18;108955;1259;61073;-62
2023/08/24 09:57:18;;;;;;;5.10;1.10;;;;;;;32.53;31.68;99985.66;108983;1259;71600;-63
2023/08/24 10:00:10;;;;;;;7.00;3.10;;;;;;;32.24;31.99;99983.23;108990;1259;68715;-62
2023/08/24 10:02:58;;;;;;;6.80;1.20;;;;;;;31.70;32.49;99983.77;108916;1260;74056;-61
2023/08/24 10:05:47;;;;;;;7.60;1.30;;;;;;;31.51;33.48;99978.37;108972;1259;57839;-61
2023/08/24 10:08:55;;;;;;;5.80;1.20;;;;;;;31.79;33.57;99973.89;108936;1259;60723;-61
2023/08/24 10:11:52;;;;;;;6.40;1.30;;;;;;;31.50;33.74;99970.06;108999;1260;73289;-60
2023/08/24 10:14:50;;;;;;;6.00;1.20;;;;;;;31.53;33.93;99965.30;109020;1259;69334;-62
2023/08/24 10:17:37;;;;;;;7.50;1.30;;;;;;;31.06;33.96;99965.46;108967;1259;72444;-62
2023/08/24 10:20:24;;;;;;;5.50;1.00;;;;;;;30.54;34.70;99956.75;108957;1260;58692;-61
2023/08/24 10:23:12;;;;;;;5.80;1.10;;;;;;;30.00;35.56;99960.33;108961;1260;60273;-61
2023/08/24 10:26:02;;;;;;;7.60;1.40;;;;;;;29.43;36.69;99955.38;108940;1259;73045;-62
2023/08/24 10:28:50;;;;;;;5.20;1.10;;;;;;;28.87;37.93;99956.92;109026;1257;66655;-63
2023/08/24 10:31:37;;;;;;;5.50;1.30;;;;;;;28.33;38.63;99957.35;109032;1257;72565;-62
2023/08/24 10:34:24;;;;;;;7.00;1.50;;;;;;;28.12;39.72;99958.41;109080;1257;57735;-63
2023/08/24 10:37:11;;;;;;;6.50;1.20;;;;;;;28.96;39.24;99954.89;109048;1257;61624;-64
2023/08/24 10:39:58;;;;;;;6.20;1.50;;;;;;;29.80;37.43;99946.89;109041;1257;73830;-63
2023/08/24 10:42:46;;;;;;;6.80;1.40;;;;;;;30.36;36.01;99941.19;109065;1257;67794;-61
2023/08/24 10:45:59;;;;;;;5.00;1.10;;;;;;;31.11;34.92;99936.17;109149;1257;73693;-61
2023/08/24 10:48:45;;;;;;;5.80;1.20;;;;;;;31.73;33.76;99933.75;109085;1257;57373;-64
2023/08/24 10:51:43;;;;;;;6.40;1.40;;;;;;;32.17;32.72;99936.00;109136;1257;60228;-63
2023/08/24 10:54:32;;;;;;;5.10;1.30;;;;;;;31.59;33.16;99939.02;109093;1257;73112;-64
2023/08/24 10:57:29;;;;;;;5.00;1.30;;;;;;;30.87;33.95;99938.64;109112;1257;66275;-63
2023/08/24 11:00:22;;;;;;;6.60;1.20;;;;;;;29.73;35.62;99939.16;109119;1257;73548;-62
2023/08/24 11:03:10;;;;;;;6.00;1.40;;;;;;;28.91;36.90;99941.16;109015;1257;58895;-62
2023/08/24 11:05:56;;;;;;;7.10;1.40;;;;;;;28.59;37.30;99941.50;109100;1257;61045;-65
2023/08/24 11:08:50;;;;;;;5.60;1.40;;;;;;;28.33;38.31;99931.95;109115;1257;73429;-62
2023/08/24 11:11:36;;;;;;;9.20;1.50;;;;;;;28.12;39.22;99933.72;109089;1257;67576;-64
2023/08/24 11:14:25;;;;;;;6.30;1.70;;;;;;;27.66;40.04;99929.73;109098;1257;73655;-62
2023/08/24 11:17:19;;;;;;;6.80;1.60;;;;;;;27.22;40.95;99930.89;109100;1257;58792;-64
2023/08/24 11:20:07;;;;;;;6.80;1.60;;;;;;;26.75;41.96;99931.80;109117;1257;60337;-64
2023/08/24 11:22:56;;;;;;;7.40;1.80;;;;;;;26.14;43.20;99932.08;108991;1257;73067;-63
2023/08/24 11:25:42;;;;;;;5.20;1.50;;;;;;;25.47;44.42;99931.95;109062;1257;68902;-64
2023/08/24 11:28:31;;;;;;;9.80;2.10;;;;;;;25.04;46.11;99926.92;109129;1257;73547;-64
2023/08/24 11:31:17;;;;;;;8.80;2.30;;;;;;;24.81;46.98;99927.67;109081;1257;58913;-65
2023/08/24 11:34:04;;;;;;;6.90;1.80;;;;;;;24.66;47.43;99924.30;109036;1257;60665;-63
2023/08/24 11:36:51;;;;;;;6.00;2.00;;;;;;;25.07;46.93;99917.11;109119;1257;73712;-64
2023/08/24 11:39:38;;;;;;;6.90;2.20;;;;;;;25.55;46.00;99910.83;109109;1257;68006;-63
2023/08/24 11:42:24;;;;;;;7.80;2.30;;;;;;;25.58;45.75;99909.05;109071;1257;72695;-63
2023/08/24 11:45:14;;;;;;;6.10;2.00;;;;;;;25.69;46.24;99908.11;108990;1257;58851;-63
2023/08/24 11:48:01;;;;;;;7.70;2.50;;;;;;;25.78;45.88;99912.00;109112;1257;61362;-64
2023/08/24 11:50:48;;;;;;;6.70;2.10;;;;;;;25.73;45.57;99904.05;109093;1257;74100;-63
2023/08/24 11:53:40;;;;;;;7.20;2.20;;;;;;;25.64;45.72;99908.81;109067;1257;68782;-67
2023/08/24 11:56:28;;;;;;;8.50;2.40;;;;;;;25.58;45.80;99908.83;109108;1257;72689;-64
2023/08/24 11:59:17;;;;;;;6.50;2.50;;;;;;;25.55;46.17;99908.52;109118;1257;57361;-63
2023/08/24 12:02:04;;;;;;;10.50;2.90;;;;;;;25.38;46.24;99900.52;109134;1257;60372;-67
2023/08/24 12:04:55;;;;;;;7.00;2.70;;;;;;;25.35;47.10;99903.67;109124;1257;73010;-64
2023/08/24 12:07:45;;;;;;;7.30;2.80;;;;;;;25.71;46.54;99897.41;109096;1257;68107;-62
2023/08/24 12:10:31;;;;;;;7.00;2.70;;;;;;;25.98;45.95;99897.36;109103;1257;73504;-63
2023/08/24 12:13:17;;;;;;;7.00;2.70;;;;;;;26.07;45.55;99894.23;109049;1257;57638;-64
2023/08/24 12:16:04;;;;;;;8.40;2.70;;;;;;;26.05;45.14;99899.63;109109;1257;60548;-64
2023/08/24 12:18:55;;;;;;;7.10;2.60;;;;;;;26.12;44.85;99904.17;109122;1257;72852;-63
2023/08/24 12:21:44;;;;;;;7.00;2.50;;;;;;;26.23;45.31;99908.94;109099;1258;69613;-66
2023/08/24 12:24:30;;;;;;;6.50;2.80;;;;;;;26.39;45.19;99902.54;109127;1257;72594;-65
2023/08/24 12:27:22;;;;;;;7.80;2.60;;;;;;;26.53;44.75;99906.61;109103;1257;57904;-64
2023/08/24 12:30:11;;;;;;;6.60;2.60;;;;;;;26.62;44.16;99906.33;109123;1257;61337;-64
2023/08/24 12:33:00;;;;;;;6.50;2.70;;;;;;;26.44;43.90;99911.16;109132;1257;72899;-64
2023/08/24 12:35:47;;;;;;;6.50;2.80;;;;;;;26.39;44.76;99909.04;109142;1257;67993;-64
2023/08/24 12:38:34;;;;;;;9.40;2.70;;;;;;;26.51;44.45;99907.64;109087;1257;72688;-63
2023/08/24 12:41:22;;;;;;;8.50;2.80;;;;;;;26.27;43.99;99900.40;109070;1257;57370;-63
2023/08/24 12:44:08;;;;;;;10.00;3.00;;;;;;;25.91;44.81;99895.03;109133;1257;61248;-62
2023/08/24 12:47:00;;;;;;;9.20;3.00;;;;;;;25.78;45.35;99896.08;109110;1257;73792;-63
2023/08/24 12:49:47;;;;;;;9.70;3.00;;;;;;;25.68;45.83;99902.84;109085;1257;68777;-62
2023/08/24 12:52:33;;;;;;;7.50;3.00;;;;;;;25.51;46.43;99902.46;109025;1257;72494;-63
2023/08/24 12:55:19;;;;;;;8.60;3.30;;;;;;;25.14;47.42;99902.36;109085;1257;57422;-62
2023/08/24 12:58:06;;;;;;;9.10;3.90;;;;;;;24.89;48.50;99902.30;109145;1257;60081;-65
2023/08/24 13:00:52;;;;;;;8.90;3.30;;;;;;;24.82;49.11;99899.95;109116;1257;74045;-63